sensor_id;sensor_type;location;lat;lon;timestamp;temperature;humidity
60701;DHT22;46541;49.894;10.886;2023-11-21T00:02:23;9.80;99.90
60701;DHT22;46541;49.894;10.886;2023-11-21T00:04:50;9.80;99.90
60701;DHT22;46541;49.894;10.886;2023-11-21T00:07:17;9.80;99.90
60701;DHT22;46541;49.894;10.886;2023-11-21T00:09:44;9.80;99.90
60701;DHT22;46541;49.894;10.886;2023-11-21T00:12:11;9.80;99.90
60701;DHT22;46541;49.894;10.886;2023-11-21T00:14:38;9.80;99.90
60701;DHT22;46541;49.894;10.886;2023-11-21T00:17:07;9.80;99.90
60701;DHT22;46541;49.894;10.886;2023-11-21T00:19:34;9.80;99.90
60701;DHT22;46541;49.894;10.886;2023-11-21T00:22:01;9.80;99.90
60701;DHT22;46541;49.894;10.886;2023-11-21T00:24:28;9.80;99.90
60701;DHT22;46541;49.894;10.886;2023-11-21T00:26:55;9.80;99.90
60701;DHT22;46541;49.894;10.886;2023-11-21T00:29:21;9.80;99.90
60701;DHT22;46541;49.894;10.886;2023-11-21T00:31:48;9.80;99.90
60701;DHT22;46541;49.894;10.886;2023-11-21T00:34:15;9.80;99.90
60701;DHT22;46541;49.894;10.886;2023-11-21T00:36:42;9.80;99.90
60701;DHT22;46541;49.894;10.886;2023-11-21T00:39:08;9.70;99.90
60701;DHT22;46541;49.894;10.886;2023-11-21T00:41:35;9.70;99.90
60701;DHT22;46541;49.894;10.886;2023-11-21T00:44:03;9.70;99.90
60701;DHT22;46541;49.894;10.886;2023-11-21T00:46:30;9.70;99.90
60701;DHT22;46541;49.894;10.886;2023-11-21T00:48:57;9.70;99.90
60701;DHT22;46541;49.894;10.886;2023-11-21T00:51:24;9.70;99.90
60701;DHT22;46541;49.894;10.886;2023-11-21T00:53:51;9.70;99.90
60701;DHT22;46541;49.894;10.886;2023-11-21T00:56:18;9.70;99.90
60701;DHT22;46541;49.894;10.886;2023-11-21T00:58:45;9.70;99.90
60701;DHT22;46541;49.894;10.886;2023-11-21T01:01:16;9.70;99.90
60701;DHT22;46541;49.894;10.886;2023-11-21T01:03:43;9.70;99.90
60701;DHT22;46541;49.894;10.886;2023-11-21T01:06:12;9.70;99.90
60701;DHT22;46541;49.894;10.886;2023-11-21T01:08:41;9.60;99.90
60701;DHT22;46541;49.894;10.886;2023-11-21T01:11:08;9.60;99.90
60701;DHT22;46541;49.894;10.886;2023-11-21T01:13:37;9.60;99.90
60701;DHT22;46541;49.894;10.886;2023-11-21T01:16:04;9.70;99.90
60701;DHT22;46541;49.894;10.886;2023-11-21T01:18:33;9.60;99.90
60701;DHT22;46541;49.894;10.886;2023-11-21T01:20:59;9.70;99.90
60701;DHT22;46541;49.894;10.886;2023-11-21T01:23:27;9.60;99.90
60701;DHT22;46541;49.894;10.886;2023-11-21T01:25:56;9.60;99.90
60701;DHT22;46541;49.894;10.886;2023-11-21T01:28:23;9.60;99.90
60701;DHT22;46541;49.894;10.886;2023-11-21T01:30:49;9.60;99.90
60701;DHT22;46541;49.894;10.886;2023-11-21T01:33:16;9.70;99.90
60701;DHT22;46541;49.894;10.886;2023-11-21T01:35:43;9.60;99.90
60701;DHT22;46541;49.894;10.886;2023-11-21T01:38:10;9.60;99.90
60701;DHT22;46541;49.894;10.886;2023-11-21T01:40:37;9.60;99.90
60701;DHT22;46541;49.894;10.886;2023-11-21T01:43:03;9.60;99.90
60701;DHT22;46541;49.894;10.886;2023-11-21T01:45:30;9.60;99.90
60701;DHT22;46541;49.894;10.886;2023-11-21T01:48:00;9.60;99.90
60701;DHT22;46541;49.894;10.886;2023-11-21T01:50:29;9.60;99.90
60701;DHT22;46541;49.894;10.886;2023-11-21T01:52:56;9.60;99.90
60701;DHT22;46541;49.894;10.886;2023-11-21T01:55:23;9.60;99.90
60701;DHT22;46541;49.894;10.886;2023-11-21T01:57:55;9.70;99.90
60701;DHT22;46541;49.894;10.886;2023-11-21T02:00:22;9.70;99.90
60701;DHT22;46541;49.894;10.886;2023-11-21T02:02:50;9.70;99.90
60701;DHT22;46541;49.894;10.886;2023-11-21T02:05:18;9.70;99.90
60701;DHT22;46541;49.894;10.886;2023-11-21T02:07:45;9.70;99.90
60701;DHT22;46541;49.894;10.886;2023-11-21T02:10:15;9.70;99.90
60701;DHT22;46541;49.894;10.886;2023-11-21T02:12:42;9.60;99.90
60701;DHT22;46541;49.894;10.886;2023-11-21T02:15:10;9.70;99.90
60701;DHT22;46541;49.894;10.886;2023-11-21T02:17:42;9.60;99.90
60701;DHT22;46541;49.894;10.886;2023-11-21T02:20:14;9.60;99.90
60701;DHT22;46541;49.894;10.886;2023-11-21T02:22:49;9.60;99.90
60701;DHT22;46541;49.894;10.886;2023-11-21T02:25:16;9.70;99.90
60701;DHT22;46541;49.894;10.886;2023-11-21T02:27:44;9.70;99.90
60701;DHT22;46541;49.894;10.886;2023-11-21T02:30:15;9.70;99.90
60701;DHT22;46541;49.894;10.886;2023-11-21T02:32:42;9.70;99.90
60701;DHT22;46541;49.894;10.886;2023-11-21T02:35:15;9.70;99.90
60701;DHT22;46541;49.894;10.886;2023-11-21T02:37:42;9.70;99.90
60701;DHT22;46541;49.894;10.886;2023-11-21T02:40:10;9.60;99.90
60701;DHT22;46541;49.894;10.886;2023-11-21T02:42:40;9.60;99.90
60701;DHT22;46541;49.894;10.886;2023-11-21T02:45:07;9.60;99.90
60701;DHT22;46541;49.894;10.886;2023-11-21T02:47:35;9.50;99.90
60701;DHT22;46541;49.894;10.886;2023-11-21T02:50:02;9.50;99.90
60701;DHT22;46541;49.894;10.886;2023-11-21T02:52:29;9.50;99.90
60701;DHT22;46541;49.894;10.886;2023-11-21T02:54:55;9.50;99.90
60701;DHT22;46541;49.894;10.886;2023-11-21T02:57:22;9.50;99.90
60701;DHT22;46541;49.894;10.886;2023-11-21T02:59:49;9.50;99.90
60701;DHT22;46541;49.894;10.886;2023-11-21T03:02:16;9.40;99.90
60701;DHT22;46541;49.894;10.886;2023-11-21T03:04:43;9.50;99.90
60701;DHT22;46541;49.894;10.886;2023-11-21T03:07:10;9.40;99.90
60701;DHT22;46541;49.894;10.886;2023-11-21T03:09:37;9.40;99.90
60701;DHT22;46541;49.894;10.886;2023-11-21T03:12:04;9.40;99.90
60701;DHT22;46541;49.894;10.886;2023-11-21T03:14:34;9.40;99.90
60701;DHT22;46541;49.894;10.886;2023-11-21T03:17:01;9.40;99.90
60701;DHT22;46541;49.894;10.886;2023-11-21T03:19:31;9.40;99.90
60701;DHT22;46541;49.894;10.886;2023-11-21T03:21:58;9.50;99.90
60701;DHT22;46541;49.894;10.886;2023-11-21T03:24:25;9.40;99.90
60701;DHT22;46541;49.894;10.886;2023-11-21T03:26:53;9.50;99.90
60701;DHT22;46541;49.894;10.886;2023-11-21T03:29:19;9.50;99.90
60701;DHT22;46541;49.894;10.886;2023-11-21T03:31:46;9.50;99.90
60701;DHT22;46541;49.894;10.886;2023-11-21T03:34:26;9.50;99.90
60701;DHT22;46541;49.894;10.886;2023-11-21T03:36:53;9.50;99.90
60701;DHT22;46541;49.894;10.886;2023-11-21T03:39:20;9.50;99.90
60701;DHT22;46541;49.894;10.886;2023-11-21T03:41:47;9.50;99.90
60701;DHT22;46541;49.894;10.886;2023-11-21T03:44:14;9.50;99.90
60701;DHT22;46541;49.894;10.886;2023-11-21T03:46:41;9.60;99.90
60701;DHT22;46541;49.894;10.886;2023-11-21T03:49:08;9.60;99.90
60701;DHT22;46541;49.894;10.886;2023-11-21T03:51:35;9.50;99.90
60701;DHT22;46541;49.894;10.886;2023-11-21T03:54:01;9.60;99.90
60701;DHT22;46541;49.894;10.886;2023-11-21T03:56:28;9.50;99.90
60701;DHT22;46541;49.894;10.886;2023-11-21T03:58:55;9.60;99.90
60701;DHT22;46541;49.894;10.886;2023-11-21T04:01:22;9.50;99.90
60701;DHT22;46541;49.894;10.886;2023-11-21T04:03:50;9.50;99.90
60701;DHT22;46541;49.894;10.886;2023-11-21T04:06:17;9.50;99.90
60701;DHT22;46541;49.894;10.886;2023-11-21T04:08:45;9.50;99.90
60701;DHT22;46541;49.894;10.886;2023-11-21T04:11:12;9.50;99.90
60701;DHT22;46541;49.894;10.886;2023-11-21T04:13:40;9.50;99.90
60701;DHT22;46541;49.894;10.886;2023-11-21T04:16:07;9.50;99.90
60701;DHT22;46541;49.894;10.886;2023-11-21T04:18:36;9.50;99.90
60701;DHT22;46541;49.894;10.886;2023-11-21T04:21:04;9.50;99.90
60701;DHT22;46541;49.894;10.886;2023-11-21T04:23:31;9.40;99.90
60701;DHT22;46541;49.894;10.886;2023-11-21T04:26:01;9.40;99.90
60701;DHT22;46541;49.894;10.886;2023-11-21T04:28:29;9.40;99.90
60701;DHT22;46541;49.894;10.886;2023-11-21T04:30:55;9.40;99.90
60701;DHT22;46541;49.894;10.886;2023-11-21T04:33:22;9.50;99.90
60701;DHT22;46541;49.894;10.886;2023-11-21T04:35:49;9.50;99.90
60701;DHT22;46541;49.894;10.886;2023-11-21T04:38:16;9.50;99.90
60701;DHT22;46541;49.894;10.886;2023-11-21T04:40:43;9.50;99.90
60701;DHT22;46541;49.894;10.886;2023-11-21T04:43:10;9.50;99.90
60701;DHT22;46541;49.894;10.886;2023-11-21T04:45:36;9.50;99.90
60701;DHT22;46541;49.894;10.886;2023-11-21T04:48:03;9.50;99.90
60701;DHT22;46541;49.894;10.886;2023-11-21T04:50:30;9.50;99.90
60701;DHT22;46541;49.894;10.886;2023-11-21T04:52:57;9.50;99.90
60701;DHT22;46541;49.894;10.886;2023-11-21T04:55:24;9.40;99.90
60701;DHT22;46541;49.894;10.886;2023-11-21T04:57:54;9.40;99.90
60701;DHT22;46541;49.894;10.886;2023-11-21T05:00:21;9.40;99.90
60701;DHT22;46541;49.894;10.886;2023-11-21T05:02:48;9.30;99.90
60701;DHT22;46541;49.894;10.886;2023-11-21T05:05:15;9.30;99.90
60701;DHT22;46541;49.894;10.886;2023-11-21T05:07:42;9.30;99.90
60701;DHT22;46541;49.894;10.886;2023-11-21T05:10:09;9.30;99.90
60701;DHT22;46541;49.894;10.886;2023-11-21T05:12:40;9.30;99.90
60701;DHT22;46541;49.894;10.886;2023-11-21T05:15:08;9.30;99.90
60701;DHT22;46541;49.894;10.886;2023-11-21T05:17:37;9.30;99.90
60701;DHT22;46541;49.894;10.886;2023-11-21T05:20:06;9.30;99.90
60701;DHT22;46541;49.894;10.886;2023-11-21T05:22:36;9.30;99.90
60701;DHT22;46541;49.894;10.886;2023-11-21T05:25:03;9.40;99.90
60701;DHT22;46541;49.894;10.886;2023-11-21T05:27:30;9.30;99.90
60701;DHT22;46541;49.894;10.886;2023-11-21T05:29:57;9.30;99.90
60701;DHT22;46541;49.894;10.886;2023-11-21T05:32:25;9.30;99.90
60701;DHT22;46541;49.894;10.886;2023-11-21T05:34:52;9.40;99.90
60701;DHT22;46541;49.894;10.886;2023-11-21T05:37:19;9.40;99.90
60701;DHT22;46541;49.894;10.886;2023-11-21T05:39:46;9.40;99.90
60701;DHT22;46541;49.894;10.886;2023-11-21T05:42:13;9.40;99.90
60701;DHT22;46541;49.894;10.886;2023-11-21T05:44:42;9.40;99.90
60701;DHT22;46541;49.894;10.886;2023-11-21T05:47:10;9.40;99.90
60701;DHT22;46541;49.894;10.886;2023-11-21T05:49:37;9.40;99.90
60701;DHT22;46541;49.894;10.886;2023-11-21T05:52:04;9.40;99.90
60701;DHT22;46541;49.894;10.886;2023-11-21T05:54:32;9.50;99.90
60701;DHT22;46541;49.894;10.886;2023-11-21T05:56:59;9.50;99.90
60701;DHT22;46541;49.894;10.886;2023-11-21T05:59:26;9.50;99.90
60701;DHT22;46541;49.894;10.886;2023-11-21T06:01:53;9.50;99.90
60701;DHT22;46541;49.894;10.886;2023-11-21T06:04:20;9.50;99.90
60701;DHT22;46541;49.894;10.886;2023-11-21T06:06:51;9.50;99.90
60701;DHT22;46541;49.894;10.886;2023-11-21T06:09:19;9.50;99.90
60701;DHT22;46541;49.894;10.886;2023-11-21T06:11:45;9.40;99.90
60701;DHT22;46541;49.894;10.886;2023-11-21T06:14:12;9.40;99.90
60701;DHT22;46541;49.894;10.886;2023-11-21T06:16:39;9.40;99.90
60701;DHT22;46541;49.894;10.886;2023-11-21T06:19:07;9.40;99.90
60701;DHT22;46541;49.894;10.886;2023-11-21T06:21:34;9.40;99.90
60701;DHT22;46541;49.894;10.886;2023-11-21T06:24:01;9.40;99.90
60701;DHT22;46541;49.894;10.886;2023-11-21T06:26:28;9.40;99.90
60701;DHT22;46541;49.894;10.886;2023-11-21T06:28:55;9.40;99.90
60701;DHT22;46541;49.894;10.886;2023-11-21T06:31:23;9.30;99.90
60701;DHT22;46541;49.894;10.886;2023-11-21T06:33:50;9.30;99.90
60701;DHT22;46541;49.894;10.886;2023-11-21T06:36:18;9.40;99.90
60701;DHT22;46541;49.894;10.886;2023-11-21T06:38:45;9.40;99.90
60701;DHT22;46541;49.894;10.886;2023-11-21T06:41:13;9.40;99.90
60701;DHT22;46541;49.894;10.886;2023-11-21T06:43:41;9.40;99.90
60701;DHT22;46541;49.894;10.886;2023-11-21T06:46:13;9.40;99.90
60701;DHT22;46541;49.894;10.886;2023-11-21T06:48:43;9.40;99.90
60701;DHT22;46541;49.894;10.886;2023-11-21T06:51:10;9.40;99.90
60701;DHT22;46541;49.894;10.886;2023-11-21T06:53:37;9.40;99.90
60701;DHT22;46541;49.894;10.886;2023-11-21T06:56:14;9.40;99.90
60701;DHT22;46541;49.894;10.886;2023-11-21T06:58:42;9.40;99.90
60701;DHT22;46541;49.894;10.886;2023-11-21T07:01:08;9.40;99.90
60701;DHT22;46541;49.894;10.886;2023-11-21T07:03:35;9.40;99.90
60701;DHT22;46541;49.894;10.886;2023-11-21T07:06:04;9.50;99.90
60701;DHT22;46541;49.894;10.886;2023-11-21T07:08:31;9.50;99.90
60701;DHT22;46541;49.894;10.886;2023-11-21T07:10:58;9.50;99.90
60701;DHT22;46541;49.894;10.886;2023-11-21T07:13:25;9.50;99.90
60701;DHT22;46541;49.894;10.886;2023-11-21T07:15:52;9.50;99.90
60701;DHT22;46541;49.894;10.886;2023-11-21T07:18:19;9.50;99.90
60701;DHT22;46541;49.894;10.886;2023-11-21T07:20:46;9.50;99.90
60701;DHT22;46541;49.894;10.886;2023-11-21T07:23:13;9.50;99.90
60701;DHT22;46541;49.894;10.886;2023-11-21T07:25:39;9.50;99.90
60701;DHT22;46541;49.894;10.886;2023-11-21T07:28:08;9.50;99.90
60701;DHT22;46541;49.894;10.886;2023-11-21T07:30:35;9.60;99.90
60701;DHT22;46541;49.894;10.886;2023-11-21T07:33:01;9.60;99.90
60701;DHT22;46541;49.894;10.886;2023-11-21T07:35:28;9.60;99.90
60701;DHT22;46541;49.894;10.886;2023-11-21T07:37:55;9.60;99.90
60701;DHT22;46541;49.894;10.886;2023-11-21T07:40:22;9.70;99.90
60701;DHT22;46541;49.894;10.886;2023-11-21T07:42:49;9.70;99.90
60701;DHT22;46541;49.894;10.886;2023-11-21T07:45:16;9.70;99.90
60701;DHT22;46541;49.894;10.886;2023-11-21T07:47:43;9.70;99.90
60701;DHT22;46541;49.894;10.886;2023-11-21T07:50:10;9.70;99.90
60701;DHT22;46541;49.894;10.886;2023-11-21T07:52:37;9.70;99.90
60701;DHT22;46541;49.894;10.886;2023-11-21T07:55:04;9.70;99.90
60701;DHT22;46541;49.894;10.886;2023-11-21T07:57:31;9.80;99.90
60701;DHT22;46541;49.894;10.886;2023-11-21T07:59:58;9.80;99.90
60701;DHT22;46541;49.894;10.886;2023-11-21T08:02:25;9.80;99.90
60701;DHT22;46541;49.894;10.886;2023-11-21T08:04:52;9.90;99.90
60701;DHT22;46541;49.894;10.886;2023-11-21T08:07:19;9.90;99.90
60701;DHT22;46541;49.894;10.886;2023-11-21T08:09:46;10.00;99.90
60701;DHT22;46541;49.894;10.886;2023-11-21T08:12:15;10.10;99.90
60701;DHT22;46541;49.894;10.886;2023-11-21T08:14:43;10.10;99.90
60701;DHT22;46541;49.894;10.886;2023-11-21T08:17:11;10.20;99.90
60701;DHT22;46541;49.894;10.886;2023-11-21T08:19:39;10.30;99.90
60701;DHT22;46541;49.894;10.886;2023-11-21T08:22:06;10.30;99.90
60701;DHT22;46541;49.894;10.886;2023-11-21T08:24:34;10.30;99.90
60701;DHT22;46541;49.894;10.886;2023-11-21T08:27:01;10.40;99.90
60701;DHT22;46541;49.894;10.886;2023-11-21T08:29:28;10.40;99.90
60701;DHT22;46541;49.894;10.886;2023-11-21T08:31:54;10.40;99.90
60701;DHT22;46541;49.894;10.886;2023-11-21T08:34:21;10.50;99.90
60701;DHT22;46541;49.894;10.886;2023-11-21T08:36:48;10.50;99.90
60701;DHT22;46541;49.894;10.886;2023-11-21T08:39:15;10.50;99.90
60701;DHT22;46541;49.894;10.886;2023-11-21T08:41:43;10.50;99.90
60701;DHT22;46541;49.894;10.886;2023-11-21T08:44:09;10.60;99.90
60701;DHT22;46541;49.894;10.886;2023-11-21T08:46:37;10.60;99.90
60701;DHT22;46541;49.894;10.886;2023-11-21T08:49:05;10.60;99.90
60701;DHT22;46541;49.894;10.886;2023-11-21T08:51:32;10.60;99.90
60701;DHT22;46541;49.894;10.886;2023-11-21T08:53:59;10.70;99.90
60701;DHT22;46541;49.894;10.886;2023-11-21T08:56:28;10.70;99.90
60701;DHT22;46541;49.894;10.886;2023-11-21T08:58:55;10.70;99.90
60701;DHT22;46541;49.894;10.886;2023-11-21T09:01:22;10.60;99.90
60701;DHT22;46541;49.894;10.886;2023-11-21T09:03:50;10.70;99.90
60701;DHT22;46541;49.894;10.886;2023-11-21T09:06:17;10.70;99.90
60701;DHT22;46541;49.894;10.886;2023-11-21T09:08:43;10.70;99.90
60701;DHT22;46541;49.894;10.886;2023-11-21T09:11:10;10.80;99.90
60701;DHT22;46541;49.894;10.886;2023-11-21T09:13:37;10.80;99.90
60701;DHT22;46541;49.894;10.886;2023-11-21T09:16:04;10.80;99.90
60701;DHT22;46541;49.894;10.886;2023-11-21T09:18:32;10.90;99.90
60701;DHT22;46541;49.894;10.886;2023-11-21T09:20:59;11.00;99.90
60701;DHT22;46541;49.894;10.886;2023-11-21T09:23:26;10.90;99.90
60701;DHT22;46541;49.894;10.886;2023-11-21T09:25:53;11.00;99.90
60701;DHT22;46541;49.894;10.886;2023-11-21T09:28:23;11.00;99.90
60701;DHT22;46541;49.894;10.886;2023-11-21T09:30:50;11.10;99.90
60701;DHT22;46541;49.894;10.886;2023-11-21T09:33:16;11.10;99.90
60701;DHT22;46541;49.894;10.886;2023-11-21T09:35:43;11.20;99.90
60701;DHT22;46541;49.894;10.886;2023-11-21T09:38:10;11.20;99.90
60701;DHT22;46541;49.894;10.886;2023-11-21T09:40:38;11.30;99.90
60701;DHT22;46541;49.894;10.886;2023-11-21T09:43:17;11.30;99.90
60701;DHT22;46541;49.894;10.886;2023-11-21T09:45:53;11.30;99.90
60701;DHT22;46541;49.894;10.886;2023-11-21T09:48:20;11.30;99.90
60701;DHT22;46541;49.894;10.886;2023-11-21T09:50:49;11.30;99.90
60701;DHT22;46541;49.894;10.886;2023-11-21T09:53:20;11.30;99.90
60701;DHT22;46541;49.894;10.886;2023-11-21T09:55:52;11.40;99.90
60701;DHT22;46541;49.894;10.886;2023-11-21T09:58:20;11.40;99.90
60701;DHT22;46541;49.894;10.886;2023-11-21T10:00:50;11.50;99.90
60701;DHT22;46541;49.894;10.886;2023-11-21T10:03:19;11.50;99.90
60701;DHT22;46541;49.894;10.886;2023-11-21T10:05:48;11.50;99.90
60701;DHT22;46541;49.894;10.886;2023-11-21T10:08:19;11.50;99.90
60701;DHT22;46541;49.894;10.886;2023-11-21T10:10:49;11.60;99.90
60701;DHT22;46541;49.894;10.886;2023-11-21T10:13:19;11.60;99.90
60701;DHT22;46541;49.894;10.886;2023-11-21T10:15:50;11.70;99.90
60701;DHT22;46541;49.894;10.886;2023-11-21T10:18:17;11.70;99.90
60701;DHT22;46541;49.894;10.886;2023-11-21T10:20:44;11.70;99.90
60701;DHT22;46541;49.894;10.886;2023-11-21T10:23:22;11.70;99.90
60701;DHT22;46541;49.894;10.886;2023-11-21T10:25:51;11.60;99.90
60701;DHT22;46541;49.894;10.886;2023-11-21T10:28:19;11.60;99.90
60701;DHT22;46541;49.894;10.886;2023-11-21T10:30:47;11.60;99.90
60701;DHT22;46541;49.894;10.886;2023-11-21T10:33:14;11.60;99.90
60701;DHT22;46541;49.894;10.886;2023-11-21T10:38:08;11.60;99.90
60701;DHT22;46541;49.894;10.886;2023-11-21T10:40:40;11.70;99.90
60701;DHT22;46541;49.894;10.886;2023-11-21T10:43:09;11.80;99.90
60701;DHT22;46541;49.894;10.886;2023-11-21T10:45:37;11.90;99.90
60701;DHT22;46541;49.894;10.886;2023-11-21T10:48:14;11.90;99.90
60701;DHT22;46541;49.894;10.886;2023-11-21T10:50:46;11.80;99.90
60701;DHT22;46541;49.894;10.886;2023-11-21T10:53:13;11.80;99.90
60701;DHT22;46541;49.894;10.886;2023-11-21T10:55:40;11.80;99.90
60701;DHT22;46541;49.894;10.886;2023-11-21T10:58:13;11.70;99.90
60701;DHT22;46541;49.894;10.886;2023-11-21T11:00:41;11.70;99.90
60701;DHT22;46541;49.894;10.886;2023-11-21T11:03:08;11.60;99.90
60701;DHT22;46541;49.894;10.886;2023-11-21T11:05:44;11.60;99.90
60701;DHT22;46541;49.894;10.886;2023-11-21T11:08:29;11.60;99.90
60701;DHT22;46541;49.894;10.886;2023-11-21T11:10:56;11.60;99.90
60701;DHT22;46541;49.894;10.886;2023-11-21T11:13:25;11.70;99.90
60701;DHT22;46541;49.894;10.886;2023-11-21T11:15:58;11.90;99.90
60701;DHT22;46541;49.894;10.886;2023-11-21T11:18:29;12.00;99.90
60701;DHT22;46541;49.894;10.886;2023-11-21T11:24:17;12.20;99.90
60701;DHT22;46541;49.894;10.886;2023-11-21T11:27:07;12.40;99.90
60701;DHT22;46541;49.894;10.886;2023-11-21T11:29:47;12.50;99.90
60701;DHT22;46541;49.894;10.886;2023-11-21T11:32:34;12.50;99.90
60701;DHT22;46541;49.894;10.886;2023-11-21T11:35:38;12.60;99.90
60701;DHT22;46541;49.894;10.886;2023-11-21T11:38:09;12.50;99.90
60701;DHT22;46541;49.894;10.886;2023-11-21T11:40:41;12.50;99.90
60701;DHT22;46541;49.894;10.886;2023-11-21T11:43:08;12.50;99.90
60701;DHT22;46541;49.894;10.886;2023-11-21T11:45:35;12.50;99.90
60701;DHT22;46541;49.894;10.886;2023-11-21T11:48:05;12.50;99.90
60701;DHT22;46541;49.894;10.886;2023-11-21T11:50:32;12.50;99.90
60701;DHT22;46541;49.894;10.886;2023-11-21T11:53:13;12.60;99.90
60701;DHT22;46541;49.894;10.886;2023-11-21T11:55:40;12.70;99.90
60701;DHT22;46541;49.894;10.886;2023-11-21T11:58:08;12.80;99.90
60701;DHT22;46541;49.894;10.886;2023-11-21T12:00:35;12.80;99.90
60701;DHT22;46541;49.894;10.886;2023-11-21T12:03:08;12.70;99.90
60701;DHT22;46541;49.894;10.886;2023-11-21T12:05:35;12.70;99.90
60701;DHT22;46541;49.894;10.886;2023-11-21T12:08:06;12.60;99.90
60701;DHT22;46541;49.894;10.886;2023-11-21T12:10:35;12.70;99.90
60701;DHT22;46541;49.894;10.886;2023-11-21T12:15:34;12.90;99.90
60701;DHT22;46541;49.894;10.886;2023-11-21T12:18:02;12.90;99.90
60701;DHT22;46541;49.894;10.886;2023-11-21T12:20:30;12.90;99.90
60701;DHT22;46541;49.894;10.886;2023-11-21T12:22:59;13.00;99.90
60701;DHT22;46541;49.894;10.886;2023-11-21T12:25:28;13.20;99.90
60701;DHT22;46541;49.894;10.886;2023-11-21T12:27:56;13.30;99.90
60701;DHT22;46541;49.894;10.886;2023-11-21T12:30:28;13.50;99.90
60701;DHT22;46541;49.894;10.886;2023-11-21T12:32:58;13.60;99.90
60701;DHT22;46541;49.894;10.886;2023-11-21T12:35:27;13.50;99.90
60701;DHT22;46541;49.894;10.886;2023-11-21T12:37:55;13.60;99.90
60701;DHT22;46541;49.894;10.886;2023-11-21T12:40:24;13.60;99.90
60701;DHT22;46541;49.894;10.886;2023-11-21T12:42:56;13.60;99.90
60701;DHT22;46541;49.894;10.886;2023-11-21T12:45:25;13.70;99.90
60701;DHT22;46541;49.894;10.886;2023-11-21T12:47:59;13.70;99.90
60701;DHT22;46541;49.894;10.886;2023-11-21T12:50:28;13.70;99.90
60701;DHT22;46541;49.894;10.886;2023-11-21T12:53:00;13.80;99.90
60701;DHT22;46541;49.894;10.886;2023-11-21T12:55:33;14.00;99.90
60701;DHT22;46541;49.894;10.886;2023-11-21T12:58:01;14.20;99.90
60701;DHT22;46541;49.894;10.886;2023-11-21T13:00:55;14.20;99.90
60701;DHT22;46541;49.894;10.886;2023-11-21T13:03:25;14.00;99.90
60701;DHT22;46541;49.894;10.886;2023-11-21T13:05:53;14.00;99.90
60701;DHT22;46541;49.894;10.886;2023-11-21T13:08:23;13.80;99.90
60701;DHT22;46541;49.894;10.886;2023-11-21T13:10:55;13.60;99.90
60701;DHT22;46541;49.894;10.886;2023-11-21T13:13:25;13.60;99.90
60701;DHT22;46541;49.894;10.886;2023-11-21T13:15:55;13.50;99.90
60701;DHT22;46541;49.894;10.886;2023-11-21T13:18:24;13.40;99.90
60701;DHT22;46541;49.894;10.886;2023-11-21T13:20:53;13.30;99.90
60701;DHT22;46541;49.894;10.886;2023-11-21T13:23:20;13.30;99.90
60701;DHT22;46541;49.894;10.886;2023-11-21T13:25:46;13.20;99.90
60701;DHT22;46541;49.894;10.886;2023-11-21T13:28:27;13.10;99.90
60701;DHT22;46541;49.894;10.886;2023-11-21T13:30:59;13.00;99.90
60701;DHT22;46541;49.894;10.886;2023-11-21T13:33:30;12.90;99.90
60701;DHT22;46541;49.894;10.886;2023-11-21T13:35:56;12.80;99.90
60701;DHT22;46541;49.894;10.886;2023-11-21T13:38:24;12.80;99.90
60701;DHT22;46541;49.894;10.886;2023-11-21T13:40:52;12.80;99.90
60701;DHT22;46541;49.894;10.886;2023-11-21T13:43:23;12.70;99.90
60701;DHT22;46541;49.894;10.886;2023-11-21T13:45:54;12.70;99.90
60701;DHT22;46541;49.894;10.886;2023-11-21T13:48:39;12.70;99.90
60701;DHT22;46541;49.894;10.886;2023-11-21T13:51:14;12.60;99.90
60701;DHT22;46541;49.894;10.886;2023-11-21T13:53:45;12.60;99.90
60701;DHT22;46541;49.894;10.886;2023-11-21T13:56:18;12.50;99.90
60701;DHT22;46541;49.894;10.886;2023-11-21T13:58:52;12.50;99.90
60701;DHT22;46541;49.894;10.886;2023-11-21T14:01:21;12.40;99.90
60701;DHT22;46541;49.894;10.886;2023-11-21T14:04:03;12.30;99.90
60701;DHT22;46541;49.894;10.886;2023-11-21T14:06:47;12.30;99.90
60701;DHT22;46541;49.894;10.886;2023-11-21T14:09:19;12.20;99.90
60701;DHT22;46541;49.894;10.886;2023-11-21T14:11:53;12.20;99.90
60701;DHT22;46541;49.894;10.886;2023-11-21T14:14:23;12.10;99.90
60701;DHT22;46541;49.894;10.886;2023-11-21T14:16:52;12.10;99.90
60701;DHT22;46541;49.894;10.886;2023-11-21T14:19:19;12.10;99.90
60701;DHT22;46541;49.894;10.886;2023-11-21T14:21:46;12.00;99.90
60701;DHT22;46541;49.894;10.886;2023-11-21T14:24:15;11.90;99.90
60701;DHT22;46541;49.894;10.886;2023-11-21T14:26:46;11.80;99.90
60701;DHT22;46541;49.894;10.886;2023-11-21T14:29:14;11.80;99.90
60701;DHT22;46541;49.894;10.886;2023-11-21T14:31:44;11.70;99.90
60701;DHT22;46541;49.894;10.886;2023-11-21T14:34:10;11.70;99.90
60701;DHT22;46541;49.894;10.886;2023-11-21T14:36:38;11.70;99.90
60701;DHT22;46541;49.894;10.886;2023-11-21T14:39:06;11.70;99.90
60701;DHT22;46541;49.894;10.886;2023-11-21T14:41:35;11.60;99.90
60701;DHT22;46541;49.894;10.886;2023-11-21T14:44:04;11.60;99.90
60701;DHT22;46541;49.894;10.886;2023-11-21T14:46:34;11.60;99.90
60701;DHT22;46541;49.894;10.886;2023-11-21T14:49:03;11.50;99.90
60701;DHT22;46541;49.894;10.886;2023-11-21T14:51:47;11.50;99.90
60701;DHT22;46541;49.894;10.886;2023-11-21T14:54:31;11.40;99.90
60701;DHT22;46541;49.894;10.886;2023-11-21T14:57:12;11.40;99.90
60701;DHT22;46541;49.894;10.886;2023-11-21T14:59:47;11.40;99.90
60701;DHT22;46541;49.894;10.886;2023-11-21T15:02:19;11.40;99.90
60701;DHT22;46541;49.894;10.886;2023-11-21T15:05:10;11.30;99.90
60701;DHT22;46541;49.894;10.886;2023-11-21T15:07:43;11.30;99.90
60701;DHT22;46541;49.894;10.886;2023-11-21T15:10:11;11.30;99.90
60701;DHT22;46541;49.894;10.886;2023-11-21T15:12:45;11.20;99.90
60701;DHT22;46541;49.894;10.886;2023-11-21T15:15:12;11.20;99.90
60701;DHT22;46541;49.894;10.886;2023-11-21T15:17:40;11.20;99.90
60701;DHT22;46541;49.894;10.886;2023-11-21T15:20:10;11.20;99.90
60701;DHT22;46541;49.894;10.886;2023-11-21T15:22:39;11.10;99.90
60701;DHT22;46541;49.894;10.886;2023-11-21T15:25:06;11.10;99.90
60701;DHT22;46541;49.894;10.886;2023-11-21T15:27:36;11.10;99.90
60701;DHT22;46541;49.894;10.886;2023-11-21T15:30:04;11.10;99.90
60701;DHT22;46541;49.894;10.886;2023-11-21T15:32:31;11.00;99.90
60701;DHT22;46541;49.894;10.886;2023-11-21T15:34:58;11.00;99.90
60701;DHT22;46541;49.894;10.886;2023-11-21T15:37:24;11.00;99.90
60701;DHT22;46541;49.894;10.886;2023-11-21T15:39:54;11.00;99.90
60701;DHT22;46541;49.894;10.886;2023-11-21T15:42:20;10.90;99.90
60701;DHT22;46541;49.894;10.886;2023-11-21T15:44:47;10.90;99.90